sensor_id;sensor_type;location;lat;lon;timestamp;P1;durP1;ratioP1;P2;durP2;ratioP2
17520;SDS011;8878;-33.370;-70.552;2023-04-24T00:02:12;9.32;;;5.10;;
17520;SDS011;8878;-33.370;-70.552;2023-04-24T00:04:45;9.43;;;5.20;;
17520;SDS011;8878;-33.370;-70.552;2023-04-24T00:07:17;9.68;;;5.38;;
17520;SDS011;8878;-33.370;-70.552;2023-04-24T00:09:49;10.90;;;5.10;;
17520;SDS011;8878;-33.370;-70.552;2023-04-24T00:12:19;16.40;;;5.53;;
17520;SDS011;8878;-33.370;-70.552;2023-04-24T00:14:49;7.40;;;4.88;;
17520;SDS011;8878;-33.370;-70.552;2023-04-24T00:17:19;9.18;;;5.07;;
17520;SDS011;8878;-33.370;-70.552;2023-04-24T00:19:49;13.98;;;5.60;;
17520;SDS011;8878;-33.370;-70.552;2023-04-24T00:22:24;12.32;;;5.40;;
17520;SDS011;8878;-33.370;-70.552;2023-04-24T00:24:55;11.32;;;5.22;;
17520;SDS011;8878;-33.370;-70.552;2023-04-24T00:27:25;6.60;;;4.63;;
17520;SDS011;8878;-33.370;-70.552;2023-04-24T00:29:56;9.98;;;4.68;;
17520;SDS011;8878;-33.370;-70.552;2023-04-24T00:32:26;13.68;;;5.95;;
17520;SDS011;8878;-33.370;-70.552;2023-04-24T00:34:56;12.02;;;5.05;;
17520;SDS011;8878;-33.370;-70.552;2023-04-24T00:37:26;9.63;;;4.97;;
17520;SDS011;8878;-33.370;-70.552;2023-04-24T00:39:58;8.38;;;4.40;;
17520;SDS011;8878;-33.370;-70.552;2023-04-24T00:42:38;8.30;;;4.25;;
17520;SDS011;8878;-33.370;-70.552;2023-04-24T00:45:09;11.18;;;4.40;;
17520;SDS011;8878;-33.370;-70.552;2023-04-24T00:47:47;12.48;;;5.38;;
17520;SDS011;8878;-33.370;-70.552;2023-04-24T00:50:21;11.85;;;4.88;;
17520;SDS011;8878;-33.370;-70.552;2023-04-24T00:52:52;11.52;;;4.45;;
17520;SDS011;8878;-33.370;-70.552;2023-04-24T00:55:24;8.40;;;5.18;;
17520;SDS011;8878;-33.370;-70.552;2023-04-24T00:58:03;11.60;;;4.72;;
17520;SDS011;8878;-33.370;-70.552;2023-04-24T01:00:33;11.10;;;5.43;;
17520;SDS011;8878;-33.370;-70.552;2023-04-24T01:03:04;6.70;;;4.47;;
17520;SDS011;8878;-33.370;-70.552;2023-04-24T01:05:34;11.68;;;4.82;;
17520;SDS011;8878;-33.370;-70.552;2023-04-24T01:08:04;7.90;;;4.57;;
17520;SDS011;8878;-33.370;-70.552;2023-04-24T01:10:39;8.18;;;4.57;;
17520;SDS011;8878;-33.370;-70.552;2023-04-24T01:13:10;10.30;;;4.70;;
17520;SDS011;8878;-33.370;-70.552;2023-04-24T01:15:42;8.77;;;4.68;;
17520;SDS011;8878;-33.370;-70.552;2023-04-24T01:18:13;13.10;;;5.03;;
17520;SDS011;8878;-33.370;-70.552;2023-04-24T01:20:44;9.30;;;4.97;;
17520;SDS011;8878;-33.370;-70.552;2023-04-24T01:23:17;9.48;;;4.10;;
17520;SDS011;8878;-33.370;-70.552;2023-04-24T01:25:48;11.40;;;4.97;;
17520;SDS011;8878;-33.370;-70.552;2023-04-24T01:28:19;8.70;;;4.57;;
17520;SDS011;8878;-33.370;-70.552;2023-04-24T01:30:49;8.63;;;4.53;;
17520;SDS011;8878;-33.370;-70.552;2023-04-24T01:33:25;6.57;;;3.63;;
17520;SDS011;8878;-33.370;-70.552;2023-04-24T01:35:55;10.40;;;4.93;;
17520;SDS011;8878;-33.370;-70.552;2023-04-24T01:38:27;10.80;;;5.60;;
17520;SDS011;8878;-33.370;-70.552;2023-04-24T01:40:57;6.07;;;4.03;;
17520;SDS011;8878;-33.370;-70.552;2023-04-24T01:43:28;10.13;;;4.73;;
17520;SDS011;8878;-33.370;-70.552;2023-04-24T01:45:58;19.67;;;5.13;;
17520;SDS011;8878;-33.370;-70.552;2023-04-24T01:48:28;10.65;;;5.10;;
17520;SDS011;8878;-33.370;-70.552;2023-04-24T01:50:58;8.90;;;4.37;;
17520;SDS011;8878;-33.370;-70.552;2023-04-24T01:53:30;7.90;;;5.07;;
17520;SDS011;8878;-33.370;-70.552;2023-04-24T01:56:00;8.03;;;4.23;;
17520;SDS011;8878;-33.370;-70.552;2023-04-24T01:58:31;7.57;;;4.47;;
17520;SDS011;8878;-33.370;-70.552;2023-04-24T02:01:05;11.80;;;5.77;;
17520;SDS011;8878;-33.370;-70.552;2023-04-24T02:03:35;9.67;;;4.10;;
17520;SDS011;8878;-33.370;-70.552;2023-04-24T02:06:06;9.83;;;5.13;;
17520;SDS011;8878;-33.370;-70.552;2023-04-24T02:08:38;8.53;;;4.20;;
17520;SDS011;8878;-33.370;-70.552;2023-04-24T02:11:11;7.00;;;4.13;;
17520;SDS011;8878;-33.370;-70.552;2023-04-24T02:13:41;8.23;;;4.33;;
17520;SDS011;8878;-33.370;-70.552;2023-04-24T02:16:11;7.17;;;3.87;;
17520;SDS011;8878;-33.370;-70.552;2023-04-24T02:18:41;9.47;;;4.93;;
17520;SDS011;8878;-33.370;-70.552;2023-04-24T02:21:11;5.87;;;4.53;;
17520;SDS011;8878;-33.370;-70.552;2023-04-24T02:23:42;14.33;;;4.57;;
17520;SDS011;8878;-33.370;-70.552;2023-04-24T02:26:15;6.10;;;4.80;;
17520;SDS011;8878;-33.370;-70.552;2023-04-24T02:28:44;6.93;;;4.50;;
17520;SDS011;8878;-33.370;-70.552;2023-04-24T02:31:14;7.23;;;4.27;;
17520;SDS011;8878;-33.370;-70.552;2023-04-24T02:33:44;11.17;;;5.17;;
17520;SDS011;8878;-33.370;-70.552;2023-04-24T02:36:17;7.97;;;5.27;;
17520;SDS011;8878;-33.370;-70.552;2023-04-24T02:38:48;12.20;;;5.23;;
17520;SDS011;8878;-33.370;-70.552;2023-04-24T02:41:18;6.40;;;4.07;;
17520;SDS011;8878;-33.370;-70.552;2023-04-24T02:43:48;8.80;;;4.70;;
17520;SDS011;8878;-33.370;-70.552;2023-04-24T02:46:18;6.63;;;3.90;;
17520;SDS011;8878;-33.370;-70.552;2023-04-24T02:48:51;8.70;;;4.53;;
17520;SDS011;8878;-33.370;-70.552;2023-04-24T02:51:21;12.20;;;4.63;;
17520;SDS011;8878;-33.370;-70.552;2023-04-24T02:53:53;10.60;;;4.87;;
17520;SDS011;8878;-33.370;-70.552;2023-04-24T02:56:22;8.37;;;5.00;;
17520;SDS011;8878;-33.370;-70.552;2023-04-24T02:58:52;6.40;;;3.97;;
17520;SDS011;8878;-33.370;-70.552;2023-04-24T03:01:21;10.00;;;5.37;;
17520;SDS011;8878;-33.370;-70.552;2023-04-24T03:03:51;10.07;;;4.10;;
17520;SDS011;8878;-33.370;-70.552;2023-04-24T03:06:20;8.43;;;4.93;;
17520;SDS011;8878;-33.370;-70.552;2023-04-24T03:08:50;5.43;;;3.73;;
17520;SDS011;8878;-33.370;-70.552;2023-04-24T03:11:21;9.07;;;4.73;;
17520;SDS011;8878;-33.370;-70.552;2023-04-24T03:13:50;10.37;;;4.43;;
17520;SDS011;8878;-33.370;-70.552;2023-04-24T03:16:20;14.70;;;4.93;;
17520;SDS011;8878;-33.370;-70.552;2023-04-24T03:18:51;9.43;;;5.27;;
17520;SDS011;8878;-33.370;-70.552;2023-04-24T03:21:20;9.10;;;4.70;;
17520;SDS011;8878;-33.370;-70.552;2023-04-24T03:23:53;11.37;;;4.00;;
17520;SDS011;8878;-33.370;-70.552;2023-04-24T03:26:22;10.00;;;4.40;;
17520;SDS011;8878;-33.370;-70.552;2023-04-24T03:28:52;9.27;;;3.73;;
17520;SDS011;8878;-33.370;-70.552;2023-04-24T03:31:22;6.43;;;3.70;;
17520;SDS011;8878;-33.370;-70.552;2023-04-24T03:33:51;8.37;;;4.63;;
17520;SDS011;8878;-33.370;-70.552;2023-04-24T03:36:21;6.40;;;3.73;;
17520;SDS011;8878;-33.370;-70.552;2023-04-24T03:38:52;7.90;;;4.80;;
17520;SDS011;8878;-33.370;-70.552;2023-04-24T03:41:21;7.20;;;4.20;;
17520;SDS011;8878;-33.370;-70.552;2023-04-24T03:43:51;5.53;;;3.87;;
17520;SDS011;8878;-33.370;-70.552;2023-04-24T03:46:22;6.67;;;3.70;;
17520;SDS011;8878;-33.370;-70.552;2023-04-24T03:48:51;6.33;;;3.20;;
17520;SDS011;8878;-33.370;-70.552;2023-04-24T03:51:21;9.70;;;4.10;;
17520;SDS011;8878;-33.370;-70.552;2023-04-24T03:53:52;6.40;;;3.37;;
17520;SDS011;8878;-33.370;-70.552;2023-04-24T03:56:21;15.13;;;3.97;;
17520;SDS011;8878;-33.370;-70.552;2023-04-24T03:58:51;7.73;;;4.40;;
17520;SDS011;8878;-33.370;-70.552;2023-04-24T04:01:21;14.47;;;5.13;;
17520;SDS011;8878;-33.370;-70.552;2023-04-24T04:03:51;9.50;;;4.27;;
17520;SDS011;8878;-33.370;-70.552;2023-04-24T04:06:23;11.90;;;5.30;;
17520;SDS011;8878;-33.370;-70.552;2023-04-24T04:08:54;8.13;;;4.53;;
17520;SDS011;8878;-33.370;-70.552;2023-04-24T04:11:24;8.40;;;4.30;;
17520;SDS011;8878;-33.370;-70.552;2023-04-24T04:13:53;5.23;;;3.77;;
17520;SDS011;8878;-33.370;-70.552;2023-04-24T04:16:23;9.17;;;4.47;;
17520;SDS011;8878;-33.370;-70.552;2023-04-24T04:18:53;9.47;;;4.47;;
17520;SDS011;8878;-33.370;-70.552;2023-04-24T04:21:23;10.77;;;4.03;;
17520;SDS011;8878;-33.370;-70.552;2023-04-24T04:23:54;7.10;;;3.83;;
17520;SDS011;8878;-33.370;-70.552;2023-04-24T04:26:26;9.03;;;3.67;;
17520;SDS011;8878;-33.370;-70.552;2023-04-24T04:28:58;6.83;;;4.17;;
17520;SDS011;8878;-33.370;-70.552;2023-04-24T04:31:29;7.47;;;3.73;;
17520;SDS011;8878;-33.370;-70.552;2023-04-24T04:33:58;14.73;;;3.57;;
17520;SDS011;8878;-33.370;-70.552;2023-04-24T04:36:27;8.10;;;4.20;;
17520;SDS011;8878;-33.370;-70.552;2023-04-24T04:38:59;5.60;;;3.27;;
17520;SDS011;8878;-33.370;-70.552;2023-04-24T04:41:28;4.13;;;3.47;;
17520;SDS011;8878;-33.370;-70.552;2023-04-24T04:43:58;8.47;;;3.13;;
17520;SDS011;8878;-33.370;-70.552;2023-04-24T04:46:27;6.33;;;3.47;;
17520;SDS011;8878;-33.370;-70.552;2023-04-24T04:48:58;5.07;;;3.57;;
17520;SDS011;8878;-33.370;-70.552;2023-04-24T04:51:28;4.63;;;3.40;;
17520;SDS011;8878;-33.370;-70.552;2023-04-24T04:54:00;6.70;;;3.50;;
17520;SDS011;8878;-33.370;-70.552;2023-04-24T04:56:30;4.10;;;2.90;;
17520;SDS011;8878;-33.370;-70.552;2023-04-24T04:58:59;7.77;;;3.60;;
17520;SDS011;8878;-33.370;-70.552;2023-04-24T05:01:28;11.37;;;4.27;;
17520;SDS011;8878;-33.370;-70.552;2023-04-24T05:03:59;5.43;;;3.30;;
17520;SDS011;8878;-33.370;-70.552;2023-04-24T05:06:29;5.47;;;3.90;;
17520;SDS011;8878;-33.370;-70.552;2023-04-24T05:09:00;8.70;;;4.07;;
17520;SDS011;8878;-33.370;-70.552;2023-04-24T05:11:30;4.50;;;3.50;;
17520;SDS011;8878;-33.370;-70.552;2023-04-24T05:14:00;8.30;;;4.47;;
17520;SDS011;8878;-33.370;-70.552;2023-04-24T05:16:29;6.53;;;2.80;;
17520;SDS011;8878;-33.370;-70.552;2023-04-24T05:18:59;12.00;;;3.37;;
17520;SDS011;8878;-33.370;-70.552;2023-04-24T05:21:31;9.53;;;4.87;;
17520;SDS011;8878;-33.370;-70.552;2023-04-24T05:24:03;7.67;;;4.03;;
17520;SDS011;8878;-33.370;-70.552;2023-04-24T05:26:34;6.20;;;3.17;;
17520;SDS011;8878;-33.370;-70.552;2023-04-24T05:29:04;6.77;;;3.67;;
17520;SDS011;8878;-33.370;-70.552;2023-04-24T05:31:34;6.50;;;3.03;;
17520;SDS011;8878;-33.370;-70.552;2023-04-24T05:34:03;3.87;;;3.07;;
17520;SDS011;8878;-33.370;-70.552;2023-04-24T05:39:05;7.27;;;3.67;;
17520;SDS011;8878;-33.370;-70.552;2023-04-24T05:41:34;4.50;;;3.13;;
17520;SDS011;8878;-33.370;-70.552;2023-04-24T05:44:04;4.50;;;3.27;;
17520;SDS011;8878;-33.370;-70.552;2023-04-24T05:46:33;4.10;;;3.03;;
17520;SDS011;8878;-33.370;-70.552;2023-04-24T05:49:03;4.13;;;2.63;;
17520;SDS011;8878;-33.370;-70.552;2023-04-24T05:51:32;4.73;;;2.97;;
17520;SDS011;8878;-33.370;-70.552;2023-04-24T05:54:02;3.83;;;2.73;;
17520;SDS011;8878;-33.370;-70.552;2023-04-24T05:56:33;4.67;;;2.47;;
17520;SDS011;8878;-33.370;-70.552;2023-04-24T05:59:02;4.50;;;2.70;;
17520;SDS011;8878;-33.370;-70.552;2023-04-24T06:01:32;4.37;;;2.77;;
17520;SDS011;8878;-33.370;-70.552;2023-04-24T06:04:02;3.30;;;2.30;;
17520;SDS011;8878;-33.370;-70.552;2023-04-24T06:06:32;5.90;;;3.10;;
17520;SDS011;8878;-33.370;-70.552;2023-04-24T06:09:04;4.30;;;2.57;;
17520;SDS011;8878;-33.370;-70.552;2023-04-24T06:11:34;2.77;;;2.47;;
17520;SDS011;8878;-33.370;-70.552;2023-04-24T06:14:04;6.50;;;2.87;;
17520;SDS011;8878;-33.370;-70.552;2023-04-24T06:16:33;5.03;;;3.00;;
17520;SDS011;8878;-33.370;-70.552;2023-04-24T06:19:04;5.77;;;2.60;;
17520;SDS011;8878;-33.370;-70.552;2023-04-24T06:21:34;4.57;;;2.47;;
17520;SDS011;8878;-33.370;-70.552;2023-04-24T06:24:05;5.20;;;2.20;;
17520;SDS011;8878;-33.370;-70.552;2023-04-24T06:26:34;6.10;;;2.83;;
17520;SDS011;8878;-33.370;-70.552;2023-04-24T06:29:05;4.70;;;2.30;;
17520;SDS011;8878;-33.370;-70.552;2023-04-24T06:31:35;2.63;;;2.43;;
17520;SDS011;8878;-33.370;-70.552;2023-04-24T06:34:05;7.23;;;2.33;;
17520;SDS011;8878;-33.370;-70.552;2023-04-24T06:36:34;5.70;;;2.50;;
17520;SDS011;8878;-33.370;-70.552;2023-04-24T06:39:05;2.80;;;2.33;;
17520;SDS011;8878;-33.370;-70.552;2023-04-24T06:41:35;8.17;;;2.40;;
17520;SDS011;8878;-33.370;-70.552;2023-04-24T06:44:05;3.73;;;2.40;;
17520;SDS011;8878;-33.370;-70.552;2023-04-24T06:46:36;2.27;;;1.93;;
17520;SDS011;8878;-33.370;-70.552;2023-04-24T06:49:05;5.33;;;2.83;;
17520;SDS011;8878;-33.370;-70.552;2023-04-24T06:51:35;2.63;;;2.30;;
17520;SDS011;8878;-33.370;-70.552;2023-04-24T06:54:06;2.03;;;1.73;;
17520;SDS011;8878;-33.370;-70.552;2023-04-24T06:56:35;3.77;;;2.07;;
17520;SDS011;8878;-33.370;-70.552;2023-04-24T06:59:05;3.43;;;2.10;;
17520;SDS011;8878;-33.370;-70.552;2023-04-24T07:01:34;6.70;;;1.50;;
17520;SDS011;8878;-33.370;-70.552;2023-04-24T07:04:04;2.50;;;1.70;;
17520;SDS011;8878;-33.370;-70.552;2023-04-24T07:06:33;3.40;;;2.13;;
17520;SDS011;8878;-33.370;-70.552;2023-04-24T07:09:03;2.40;;;1.47;;
17520;SDS011;8878;-33.370;-70.552;2023-04-24T07:11:35;3.17;;;1.93;;
17520;SDS011;8878;-33.370;-70.552;2023-04-24T07:14:06;3.70;;;1.47;;
17520;SDS011;8878;-33.370;-70.552;2023-04-24T07:16:36;2.30;;;1.23;;
17520;SDS011;8878;-33.370;-70.552;2023-04-24T07:19:05;2.93;;;1.33;;
17520;SDS011;8878;-33.370;-70.552;2023-04-24T07:21:35;2.50;;;1.80;;
17520;SDS011;8878;-33.370;-70.552;2023-04-24T07:24:07;3.23;;;1.80;;
17520;SDS011;8878;-33.370;-70.552;2023-04-24T07:26:37;2.97;;;1.83;;
17520;SDS011;8878;-33.370;-70.552;2023-04-24T07:29:07;6.13;;;2.07;;
17520;SDS011;8878;-33.370;-70.552;2023-04-24T07:31:36;3.43;;;1.90;;
17520;SDS011;8878;-33.370;-70.552;2023-04-24T07:34:06;5.33;;;1.70;;
17520;SDS011;8878;-33.370;-70.552;2023-04-24T07:36:37;2.23;;;1.27;;
17520;SDS011;8878;-33.370;-70.552;2023-04-24T07:39:08;4.53;;;1.47;;
17520;SDS011;8878;-33.370;-70.552;2023-04-24T07:41:38;1.80;;;1.60;;
17520;SDS011;8878;-33.370;-70.552;2023-04-24T07:44:07;1.73;;;1.20;;
17520;SDS011;8878;-33.370;-70.552;2023-04-24T07:46:37;1.40;;;1.30;;
17520;SDS011;8878;-33.370;-70.552;2023-04-24T07:49:07;1.77;;;1.60;;
17520;SDS011;8878;-33.370;-70.552;2023-04-24T07:51:36;2.50;;;1.30;;
17520;SDS011;8878;-33.370;-70.552;2023-04-24T07:54:08;1.50;;;1.30;;
17520;SDS011;8878;-33.370;-70.552;2023-04-24T07:56:38;1.37;;;1.23;;
17520;SDS011;8878;-33.370;-70.552;2023-04-24T07:59:08;2.50;;;1.00;;
17520;SDS011;8878;-33.370;-70.552;2023-04-24T08:01:38;2.70;;;1.13;;
17520;SDS011;8878;-33.370;-70.552;2023-04-24T08:04:09;3.90;;;2.13;;
17520;SDS011;8878;-33.370;-70.552;2023-04-24T08:06:38;2.00;;;0.83;;
17520;SDS011;8878;-33.370;-70.552;2023-04-24T08:09:10;5.70;;;1.93;;
17520;SDS011;8878;-33.370;-70.552;2023-04-24T08:11:39;5.90;;;1.00;;
17520;SDS011;8878;-33.370;-70.552;2023-04-24T08:14:09;3.30;;;1.50;;
17520;SDS011;8878;-33.370;-70.552;2023-04-24T08:16:39;1.70;;;1.07;;
17520;SDS011;8878;-33.370;-70.552;2023-04-24T08:19:09;2.50;;;1.20;;
17520;SDS011;8878;-33.370;-70.552;2023-04-24T08:21:39;2.37;;;1.23;;
17520;SDS011;8878;-33.370;-70.552;2023-04-24T08:24:10;2.27;;;0.97;;
17520;SDS011;8878;-33.370;-70.552;2023-04-24T08:26:40;1.90;;;1.50;;
17520;SDS011;8878;-33.370;-70.552;2023-04-24T08:29:09;1.53;;;1.10;;
17520;SDS011;8878;-33.370;-70.552;2023-04-24T08:31:39;2.80;;;1.63;;
17520;SDS011;8878;-33.370;-70.552;2023-04-24T08:34:09;1.07;;;1.03;;
17520;SDS011;8878;-33.370;-70.552;2023-04-24T08:36:39;4.23;;;1.40;;
17520;SDS011;8878;-33.370;-70.552;2023-04-24T08:39:10;2.13;;;1.27;;
17520;SDS011;8878;-33.370;-70.552;2023-04-24T08:41:41;2.20;;;1.60;;
17520;SDS011;8878;-33.370;-70.552;2023-04-24T08:44:12;2.87;;;1.33;;
17520;SDS011;8878;-33.370;-70.552;2023-04-24T08:46:42;1.10;;;1.10;;
17520;SDS011;8878;-33.370;-70.552;2023-04-24T08:49:13;2.10;;;0.93;;
17520;SDS011;8878;-33.370;-70.552;2023-04-24T08:51:44;1.90;;;1.37;;
17520;SDS011;8878;-33.370;-70.552;2023-04-24T08:54:16;4.27;;;1.23;;
17520;SDS011;8878;-33.370;-70.552;2023-04-24T08:56:46;2.67;;;1.00;;
17520;SDS011;8878;-33.370;-70.552;2023-04-24T08:59:17;1.03;;;0.93;;
17520;SDS011;8878;-33.370;-70.552;2023-04-24T09:01:47;1.87;;;1.30;;
17520;SDS011;8878;-33.370;-70.552;2023-04-24T09:04:19;1.80;;;0.93;;
17520;SDS011;8878;-33.370;-70.552;2023-04-24T09:06:50;1.20;;;0.87;;
17520;SDS011;8878;-33.370;-70.552;2023-04-24T09:09:21;2.77;;;1.00;;
17520;SDS011;8878;-33.370;-70.552;2023-04-24T09:11:52;1.67;;;1.30;;
17520;SDS011;8878;-33.370;-70.552;2023-04-24T09:14:22;1.73;;;1.27;;
17520;SDS011;8878;-33.370;-70.552;2023-04-24T09:16:51;1.77;;;1.13;;
17520;SDS011;8878;-33.370;-70.552;2023-04-24T09:19:22;3.57;;;1.47;;
17520;SDS011;8878;-33.370;-70.552;2023-04-24T09:21:51;2.07;;;1.33;;
17520;SDS011;8878;-33.370;-70.552;2023-04-24T09:24:24;7.57;;;2.07;;
17520;SDS011;8878;-33.370;-70.552;2023-04-24T09:26:56;1.43;;;1.33;;
17520;SDS011;8878;-33.370;-70.552;2023-04-24T09:29:27;3.83;;;2.83;;
17520;SDS011;8878;-33.370;-70.552;2023-04-24T09:31:57;1.90;;;1.33;;
17520;SDS011;8878;-33.370;-70.552;2023-04-24T09:34:27;3.50;;;2.27;;
17520;SDS011;8878;-33.370;-70.552;2023-04-24T09:36:57;4.07;;;1.97;;
17520;SDS011;8878;-33.370;-70.552;2023-04-24T09:39:29;2.60;;;1.50;;
17520;SDS011;8878;-33.370;-70.552;2023-04-24T09:41:58;2.73;;;2.27;;
17520;SDS011;8878;-33.370;-70.552;2023-04-24T09:44:30;4.97;;;2.63;;
17520;SDS011;8878;-33.370;-70.552;2023-04-24T09:47:04;7.37;;;2.40;;
17520;SDS011;8878;-33.370;-70.552;2023-04-24T09:49:38;3.50;;;2.57;;
17520;SDS011;8878;-33.370;-70.552;2023-04-24T09:52:10;4.10;;;2.33;;
17520;SDS011;8878;-33.370;-70.552;2023-04-24T09:54:41;5.60;;;3.23;;
17520;SDS011;8878;-33.370;-70.552;2023-04-24T09:57:20;10.17;;;3.60;;
17520;SDS011;8878;-33.370;-70.552;2023-04-24T09:59:49;5.37;;;2.73;;
17520;SDS011;8878;-33.370;-70.552;2023-04-24T10:02:22;10.20;;;2.33;;
17520;SDS011;8878;-33.370;-70.552;2023-04-24T10:04:54;5.57;;;3.13;;
17520;SDS011;8878;-33.370;-70.552;2023-04-24T10:07:25;5.03;;;2.80;;
17520;SDS011;8878;-33.370;-70.552;2023-04-24T10:09:57;6.30;;;2.97;;
17520;SDS011;8878;-33.370;-70.552;2023-04-24T10:12:27;8.33;;;3.57;;
17520;SDS011;8878;-33.370;-70.552;2023-04-24T10:14:57;5.57;;;3.00;;
17520;SDS011;8878;-33.370;-70.552;2023-04-24T10:17:27;3.53;;;2.77;;
17520;SDS011;8878;-33.370;-70.552;2023-04-24T10:19:57;5.33;;;2.77;;
17520;SDS011;8878;-33.370;-70.552;2023-04-24T10:22:28;7.53;;;3.13;;
17520;SDS011;8878;-33.370;-70.552;2023-04-24T10:25:00;4.90;;;2.07;;
17520;SDS011;8878;-33.370;-70.552;2023-04-24T10:27:33;4.23;;;2.30;;
17520;SDS011;8878;-33.370;-70.552;2023-04-24T10:30:04;4.70;;;2.20;;
17520;SDS011;8878;-33.370;-70.552;2023-04-24T10:32:35;1.93;;;1.50;;
17520;SDS011;8878;-33.370;-70.552;2023-04-24T10:35:06;2.43;;;1.57;;
17520;SDS011;8878;-33.370;-70.552;2023-04-24T10:37:36;3.27;;;1.33;;
17520;SDS011;8878;-33.370;-70.552;2023-04-24T10:40:11;3.23;;;1.40;;
17520;SDS011;8878;-33.370;-70.552;2023-04-24T10:42:49;2.53;;;1.30;;
17520;SDS011;8878;-33.370;-70.552;2023-04-24T10:45:22;1.80;;;1.23;;
17520;SDS011;8878;-33.370;-70.552;2023-04-24T10:47:59;3.07;;;1.63;;
17520;SDS011;8878;-33.370;-70.552;2023-04-24T10:50:42;2.33;;;1.87;;
17520;SDS011;8878;-33.370;-70.552;2023-04-24T10:53:13;2.37;;;1.97;;
17520;SDS011;8878;-33.370;-70.552;2023-04-24T10:55:47;6.03;;;2.00;;
17520;SDS011;8878;-33.370;-70.552;2023-04-24T10:58:18;5.87;;;2.17;;
17520;SDS011;8878;-33.370;-70.552;2023-04-24T11:00:58;2.83;;;1.87;;
17520;SDS011;8878;-33.370;-70.552;2023-04-24T11:03:28;7.17;;;2.07;;
17520;SDS011;8878;-33.370;-70.552;2023-04-24T11:06:00;3.07;;;1.53;;
17520;SDS011;8878;-33.370;-70.552;2023-04-24T11:08:31;2.80;;;1.43;;
17520;SDS011;8878;-33.370;-70.552;2023-04-24T11:11:13;1.97;;;1.60;;
17520;SDS011;8878;-33.370;-70.552;2023-04-24T11:16:33;2.37;;;2.10;;
17520;SDS011;8878;-33.370;-70.552;2023-04-24T11:19:05;4.00;;;2.00;;
17520;SDS011;8878;-33.370;-70.552;2023-04-24T11:21:42;3.57;;;1.43;;
17520;SDS011;8878;-33.370;-70.552;2023-04-24T11:24:25;2.87;;;1.67;;
17520;SDS011;8878;-33.370;-70.552;2023-04-24T11:26:58;1.73;;;1.63;;
17520;SDS011;8878;-33.370;-70.552;2023-04-24T11:29:40;2.07;;;1.47;;
17520;SDS011;8878;-33.370;-70.552;2023-04-24T11:32:18;2.30;;;1.83;;
17520;SDS011;8878;-33.370;-70.552;2023-04-24T11:34:52;4.20;;;2.17;;
17520;SDS011;8878;-33.370;-70.552;2023-04-24T11:37:23;1.70;;;1.60;;
17520;SDS011;8878;-33.370;-70.552;2023-04-24T11:39:54;2.13;;;1.77;;
17520;SDS011;8878;-33.370;-70.552;2023-04-24T11:42:27;4.33;;;1.73;;
17520;SDS011;8878;-33.370;-70.552;2023-04-24T11:45:01;3.33;;;2.00;;
17520;SDS011;8878;-33.370;-70.552;2023-04-24T11:47:35;2.87;;;2.00;;
17520;SDS011;8878;-33.370;-70.552;2023-04-24T11:50:05;1.83;;;1.67;;
17520;SDS011;8878;-33.370;-70.552;2023-04-24T11:52:37;3.20;;;1.73;;
17520;SDS011;8878;-33.370;-70.552;2023-04-24T11:55:07;5.07;;;2.57;;
17520;SDS011;8878;-33.370;-70.552;2023-04-24T11:57:53;4.03;;;2.43;;
17520;SDS011;8878;-33.370;-70.552;2023-04-24T12:00:25;2.53;;;1.97;;
17520;SDS011;8878;-33.370;-70.552;2023-04-24T12:03:03;5.00;;;1.80;;
17520;SDS011;8878;-33.370;-70.552;2023-04-24T12:05:34;2.40;;;1.67;;
17520;SDS011;8878;-33.370;-70.552;2023-04-24T12:08:04;4.43;;;2.33;;
17520;SDS011;8878;-33.370;-70.552;2023-04-24T12:10:34;4.93;;;2.87;;
17520;SDS011;8878;-33.370;-70.552;2023-04-24T12:13:05;16.87;;;4.03;;
17520;SDS011;8878;-33.370;-70.552;2023-04-24T12:15:39;5.93;;;2.60;;
17520;SDS011;8878;-33.370;-70.552;2023-04-24T12:18:11;7.20;;;3.60;;
17520;SDS011;8878;-33.370;-70.552;2023-04-24T12:20:46;5.90;;;3.60;;
17520;SDS011;8878;-33.370;-70.552;2023-04-24T12:23:16;5.00;;;3.20;;
17520;SDS011;8878;-33.370;-70.552;2023-04-24T12:26:03;5.00;;;3.50;;
17520;SDS011;8878;-33.370;-70.552;2023-04-24T12:28:37;7.37;;;3.40;;
17520;SDS011;8878;-33.370;-70.552;2023-04-24T12:31:07;6.27;;;3.80;;
17520;SDS011;8878;-33.370;-70.552;2023-04-24T12:33:37;7.27;;;3.90;;
17520;SDS011;8878;-33.370;-70.552;2023-04-24T12:36:06;7.37;;;4.00;;
17520;SDS011;8878;-33.370;-70.552;2023-04-24T12:38:42;6.87;;;3.70;;
17520;SDS011;8878;-33.370;-70.552;2023-04-24T12:41:12;7.70;;;4.13;;
17520;SDS011;8878;-33.370;-70.552;2023-04-24T12:43:53;8.50;;;4.03;;
17520;SDS011;8878;-33.370;-70.552;2023-04-24T12:46:23;6.27;;;4.17;;
17520;SDS011;8878;-33.370;-70.552;2023-04-24T12:48:52;8.33;;;4.83;;
17520;SDS011;8878;-33.370;-70.552;2023-04-24T12:51:22;8.43;;;4.50;;
17520;SDS011;8878;-33.370;-70.552;2023-04-24T12:53:52;12.63;;;4.60;;
17520;SDS011;8878;-33.370;-70.552;2023-04-24T12:56:22;12.97;;;5.00;;
17520;SDS011;8878;-33.370;-70.552;2023-04-24T12:58:53;9.07;;;4.30;;
17520;SDS011;8878;-33.370;-70.552;2023-04-24T13:01:23;9.87;;;4.60;;
17520;SDS011;8878;-33.370;-70.552;2023-04-24T13:03:52;17.73;;;4.87;;
17520;SDS011;8878;-33.370;-70.552;2023-04-24T13:06:21;7.53;;;4.70;;
17520;SDS011;8878;-33.370;-70.552;2023-04-24T13:08:52;7.73;;;3.90;;
17520;SDS011;8878;-33.370;-70.552;2023-04-24T13:11:23;9.37;;;4.97;;
17520;SDS011;8878;-33.370;-70.552;2023-04-24T13:13:55;10.27;;;5.30;;
17520;SDS011;8878;-33.370;-70.552;2023-04-24T13:16:24;11.33;;;5.67;;
17520;SDS011;8878;-33.370;-70.552;2023-04-24T13:18:53;9.23;;;5.17;;
17520;SDS011;8878;-33.370;-70.552;2023-04-24T13:21:23;10.43;;;5.80;;
17520;SDS011;8878;-33.370;-70.552;2023-04-24T13:23:52;11.70;;;5.43;;
17520;SDS011;8878;-33.370;-70.552;2023-04-24T13:26:21;10.63;;;5.30;;
17520;SDS011;8878;-33.370;-70.552;2023-04-24T13:28:51;10.63;;;6.07;;
17520;SDS011;8878;-33.370;-70.552;2023-04-24T13:31:22;13.67;;;6.60;;
17520;SDS011;8878;-33.370;-70.552;2023-04-24T13:33:51;16.67;;;6.03;;
17520;SDS011;8878;-33.370;-70.552;2023-04-24T13:36:20;16.70;;;6.10;;
17520;SDS011;8878;-33.370;-70.552;2023-04-24T13:38:50;14.13;;;6.10;;
17520;SDS011;8878;-33.370;-70.552;2023-04-24T13:41:19;11.73;;;6.77;;
17520;SDS011;8878;-33.370;-70.552;2023-04-24T13:43:48;11.10;;;6.63;;
17520;SDS011;8878;-33.370;-70.552;2023-04-24T13:46:18;10.47;;;5.00;;
17520;SDS011;8878;-33.370;-70.552;2023-04-24T13:48:49;11.20;;;4.77;;
17520;SDS011;8878;-33.370;-70.552;2023-04-24T13:51:18;16.50;;;5.93;;
17520;SDS011;8878;-33.370;-70.552;2023-04-24T13:53:48;10.47;;;5.37;;
17520;SDS011;8878;-33.370;-70.552;2023-04-24T13:56:17;13.40;;;6.70;;
17520;SDS011;8878;-33.370;-70.552;2023-04-24T13:58:46;11.43;;;6.50;;
17520;SDS011;8878;-33.370;-70.552;2023-04-24T14:01:16;8.60;;;5.90;;
17520;SDS011;8878;-33.370;-70.552;2023-04-24T14:03:45;11.27;;;6.47;;
17520;SDS011;8878;-33.370;-70.552;2023-04-24T14:06:16;18.27;;;6.80;;
17520;SDS011;8878;-33.370;-70.552;2023-04-24T14:08:45;10.50;;;6.53;;
17520;SDS011;8878;-33.370;-70.552;2023-04-24T14:11:16;12.17;;;6.37;;
17520;SDS011;8878;-33.370;-70.552;2023-04-24T14:13:46;15.93;;;6.25;;
17520;SDS011;8878;-33.370;-70.552;2023-04-24T14:16:16;16.03;;;5.70;;
17520;SDS011;8878;-33.370;-70.552;2023-04-24T14:18:45;16.03;;;7.27;;
17520;SDS011;8878;-33.370;-70.552;2023-04-24T14:21:17;15.37;;;7.13;;
17520;SDS011;8878;-33.370;-70.552;2023-04-24T14:23:48;12.90;;;6.50;;
17520;SDS011;8878;-33.370;-70.552;2023-04-24T14:26:18;17.37;;;6.87;;
17520;SDS011;8878;-33.370;-70.552;2023-04-24T14:28:48;14.03;;;6.87;;
17520;SDS011;8878;-33.370;-70.552;2023-04-24T14:31:19;19.90;;;7.27;;
17520;SDS011;8878;-33.370;-70.552;2023-04-24T14:33:48;13.83;;;7.57;;
17520;SDS011;8878;-33.370;-70.552;2023-04-24T14:36:20;18.15;;;9.07;;
17520;SDS011;8878;-33.370;-70.552;2023-04-24T14:38:49;15.70;;;7.18;;
17520;SDS011;8878;-33.370;-70.552;2023-04-24T14:41:19;17.35;;;7.20;;
17520;SDS011;8878;-33.370;-70.552;2023-04-24T14:43:48;14.18;;;6.82;;
17520;SDS011;8878;-33.370;-70.552;2023-04-24T14:46:17;16.03;;;7.33;;